createdAt,value
2017-05-27T04:46:14.411Z,19.39
2017-05-27T04:46:39.877Z,19.44
2017-05-27T04:47:05.346Z,19.37
2017-05-27T04:47:30.816Z,19.41
2017-05-27T04:47:56.281Z,19.44
2017-05-27T04:48:21.759Z,19.51
2017-05-27T04:48:47.288Z,19.55
2017-05-27T04:49:12.760Z,19.56
2017-05-27T04:49:38.250Z,19.54
2017-05-27T04:50:03.771Z,19.62
2017-05-27T04:50:29.252Z,19.58
2017-05-27T04:50:54.746Z,19.64
2017-05-27T04:51:20.215Z,19.63
2017-05-27T04:51:45.690Z,19.63
2017-05-27T04:52:11.161Z,19.63
2017-05-27T04:52:36.622Z,19.63
2017-05-27T04:53:02.100Z,19.67
2017-05-27T04:53:27.558Z,19.76
2017-05-27T04:53:53.049Z,19.74
2017-05-27T04:54:18.525Z,19.77
2017-05-27T04:54:44.004Z,19.92
2017-05-27T04:55:09.472Z,19.89
2017-05-27T04:55:34.956Z,19.95
2017-05-27T04:56:00.432Z,19.92
2017-05-27T04:56:25.890Z,20
2017-05-27T04:56:51.357Z,20.09
2017-05-27T04:57:16.822Z,19.96
2017-05-27T04:57:42.346Z,20.1
2017-05-27T04:58:07.804Z,20.06
2017-05-27T04:58:33.287Z,20.07
2017-05-27T04:58:58.746Z,20.06
2017-05-27T04:59:24.228Z,20.1
2017-05-27T04:59:49.724Z,20.1
2017-05-27T05:00:15.227Z,20.14
2017-05-27T05:00:40.738Z,20.19
2017-05-27T05:01:06.220Z,20.18
2017-05-27T05:01:31.714Z,20.16
2017-05-27T05:01:57.167Z,20.24
2017-05-27T05:02:22.665Z,20.29
2017-05-27T05:02:48.149Z,20.31
2017-05-27T05:03:13.617Z,20.34
2017-05-27T05:03:39.113Z,20.29
2017-05-27T05:04:04.609Z,20.28
2017-05-27T05:04:30.067Z,20.28
2017-05-27T05:04:55.521Z,20.32
2017-05-27T05:05:21.017Z,20.37
2017-05-27T05:05:46.462Z,20.37
2017-05-27T05:06:11.931Z,20.28
2017-05-27T05:06:37.453Z,20.32
2017-05-27T05:07:02.936Z,20.25
2017-05-27T05:07:28.437Z,20.26
2017-05-27T05:08:16.752Z,20.31
2017-05-27T05:08:42.236Z,20.28
2017-05-27T05:09:07.687Z,20.31
2017-05-27T05:09:33.168Z,20.22
2017-05-27T05:09:58.632Z,20.24
2017-05-27T05:10:24.107Z,20.29
2017-05-27T05:10:49.581Z,20.26
2017-05-27T05:11:15.043Z,20.19
2017-05-27T05:11:40.525Z,20.13
2017-05-27T05:12:06.005Z,20.13
2017-05-27T05:12:31.467Z,20.25
2017-05-27T05:12:56.958Z,20.26
2017-05-27T05:13:22.411Z,20.28
2017-05-27T05:13:47.927Z,20.25
2017-05-27T05:14:13.393Z,20.34
2017-05-27T05:14:38.890Z,20.29
2017-05-27T05:15:04.391Z,20.32
2017-05-27T05:15:29.907Z,20.31
2017-05-27T05:15:55.372Z,20.34
2017-05-27T05:16:20.874Z,20.32
2017-05-27T05:16:46.369Z,20.28
2017-05-27T05:17:11.840Z,20.32
2017-05-27T05:17:37.332Z,20.29
2017-05-27T05:18:02.800Z,20.28
2017-05-27T05:18:28.271Z,20.32
2017-05-27T05:18:53.768Z,20.28
2017-05-27T05:19:19.243Z,20.26
2017-05-27T05:19:44.746Z,20.22
2017-05-27T05:20:10.231Z,20.31
2017-05-27T05:20:35.710Z,20.28
2017-05-27T05:21:01.158Z,20.4
2017-05-27T05:21:26.651Z,20.4
2017-05-27T05:21:52.130Z,20.51
2017-05-27T05:22:17.599Z,20.48
2017-05-27T05:22:43.079Z,20.48
2017-05-27T05:23:08.562Z,20.51
2017-05-27T05:23:34.034Z,20.62
2017-05-27T05:23:59.498Z,20.65
2017-05-27T05:24:25.001Z,20.6
2017-05-27T05:24:50.484Z,20.69
2017-05-27T05:25:15.936Z,20.7
2017-05-27T05:25:41.460Z,20.66
2017-05-27T05:26:06.903Z,20.72
2017-05-27T05:26:32.349Z,20.72
2017-05-27T05:26:57.831Z,20.72
2017-05-27T05:27:23.311Z,20.81
2017-05-27T05:27:48.795Z,20.8
2017-05-27T05:28:14.266Z,20.84
2017-05-27T05:28:39.730Z,20.82
2017-05-27T05:29:05.205Z,20.78
2017-05-27T05:29:30.697Z,20.82
2017-05-27T05:29:56.206Z,20.92
2017-05-27T05:30:21.671Z,20.92
2017-05-27T05:30:47.146Z,20.92
2017-05-27T05:31:12.624Z,20.93
2017-05-27T05:31:38.133Z,20.88
2017-05-27T05:32:03.609Z,20.87
2017-05-27T05:32:29.055Z,20.99
2017-05-27T05:32:54.560Z,20.93
2017-05-27T05:33:20.033Z,21
2017-05-27T05:33:45.554Z,20.93
2017-05-27T05:34:11.047Z,20.93
2017-05-27T05:34:36.514Z,20.97
2017-05-27T05:35:01.997Z,21
2017-05-27T05:35:27.492Z,20.92
2017-05-27T05:35:52.987Z,20.95
2017-05-27T05:36:18.485Z,21.11
2017-05-27T05:36:43.961Z,21.03
2017-05-27T05:37:09.455Z,21.17
2017-05-27T05:37:34.913Z,21.02
2017-05-27T05:38:00.406Z,20.99
2017-05-27T05:38:25.871Z,20.97
2017-05-27T05:38:51.345Z,21.12
2017-05-27T05:39:16.824Z,20.95
2017-05-27T05:39:42.316Z,21.02
2017-05-27T05:40:07.791Z,21.05
2017-05-27T05:40:33.283Z,21.05
2017-05-27T05:40:58.752Z,21.09
2017-05-27T05:41:24.235Z,21.07
2017-05-27T05:41:49.686Z,21.14
2017-05-27T05:42:15.173Z,21.15
2017-05-27T05:42:40.613Z,21.17
2017-05-27T05:43:06.082Z,21.2
2017-05-27T05:43:31.591Z,21.22
2017-05-27T05:43:57.082Z,21.21
2017-05-27T05:44:22.537Z,21.24
2017-05-27T05:44:47.995Z,21.15
2017-05-27T05:45:13.460Z,21.29
2017-05-27T05:45:38.962Z,21.33
2017-05-27T05:46:04.398Z,21.37
2017-05-27T05:46:29.859Z,21.45
2017-05-27T05:46:55.314Z,21.45
2017-05-27T05:47:20.823Z,21.39
2017-05-27T05:47:46.351Z,21.43
2017-05-27T05:48:11.812Z,21.42
2017-05-27T05:48:37.282Z,21.46
2017-05-27T05:49:02.756Z,21.5
2017-05-27T05:49:28.230Z,21.52
2017-05-27T05:49:53.681Z,21.55
2017-05-27T05:50:19.141Z,21.61
2017-05-27T05:50:44.632Z,21.62
2017-05-27T05:51:10.106Z,21.58
2017-05-27T05:51:35.605Z,21.66
2017-05-27T05:52:01.131Z,21.69
2017-05-27T05:52:26.601Z,21.77
2017-05-27T05:52:52.095Z,21.64
2017-05-27T05:53:17.581Z,21.8
2017-05-27T05:53:43.057Z,21.8
2017-05-27T05:54:08.538Z,21.75
2017-05-27T05:54:33.993Z,21.66
2017-05-27T05:54:59.455Z,21.82
2017-05-27T05:55:24.946Z,21.75
2017-05-27T05:55:50.399Z,21.82
2017-05-27T05:56:15.872Z,21.75
2017-05-27T05:56:41.354Z,21.79
2017-05-27T05:57:06.854Z,21.8
2017-05-27T05:57:32.323Z,21.79
2017-05-27T05:57:57.819Z,21.73
2017-05-27T05:58:23.292Z,21.76
2017-05-27T05:58:48.790Z,21.82
2017-05-27T05:59:14.256Z,21.82
2017-05-27T05:59:39.721Z,21.82
2017-05-27T06:00:05.221Z,21.83
2017-05-27T06:00:30.670Z,21.8
2017-05-27T06:00:56.197Z,21.88
2017-05-27T06:01:21.645Z,21.8
2017-05-27T06:01:47.121Z,21.83
2017-05-27T06:02:12.598Z,21.82
2017-05-27T06:02:38.055Z,21.91
2017-05-27T06:03:03.540Z,21.89
2017-05-27T06:03:28.994Z,21.96
2017-05-27T06:03:54.471Z,21.91
2017-05-27T06:04:19.953Z,22
2017-05-27T06:04:45.400Z,21.98
2017-05-27T06:05:10.876Z,22
2017-05-27T06:05:36.334Z,22.04
2017-05-27T06:06:01.826Z,21.98
2017-05-27T06:06:27.278Z,22.13
2017-05-27T06:06:52.774Z,22.17
2017-05-27T06:07:18.237Z,22.22
2017-05-27T06:07:43.736Z,22.15
2017-05-27T06:08:09.210Z,22.14
2017-05-27T06:08:34.733Z,22.15
2017-05-27T06:09:00.198Z,22.13
2017-05-27T06:09:25.677Z,22.26
2017-05-27T06:09:51.193Z,22.18
2017-05-27T06:10:16.677Z,22.25
2017-05-27T06:10:42.155Z,22.23
2017-05-27T06:11:07.593Z,22.26
2017-05-27T06:11:33.029Z,22.35
2017-05-27T06:11:58.537Z,22.38
2017-05-27T06:12:24.031Z,22.41
2017-05-27T06:12:49.515Z,22.35
2017-05-27T06:13:14.997Z,22.45
2017-05-27T06:13:40.485Z,22.51
2017-05-27T06:14:05.958Z,22.54
2017-05-27T06:14:31.440Z,22.51
2017-05-27T06:14:56.912Z,22.53
2017-05-27T06:15:22.428Z,22.6
2017-05-27T06:15:47.866Z,22.66
2017-05-27T06:16:13.373Z,22.66
2017-05-27T06:16:38.866Z,22.62
2017-05-27T06:17:04.346Z,22.62
2017-05-27T06:17:29.823Z,22.66
2017-05-27T06:17:55.272Z,22.6
2017-05-27T06:18:20.753Z,22.54
2017-05-27T06:18:46.218Z,22.59
2017-05-27T06:19:11.738Z,22.6
2017-05-27T06:19:37.210Z,22.5
2017-05-27T06:20:02.681Z,22.55
2017-05-27T06:20:28.154Z,22.62
2017-05-27T06:20:53.659Z,22.65
2017-05-27T06:21:19.153Z,22.65
2017-05-27T06:21:44.624Z,22.62
2017-05-27T06:22:10.114Z,22.69
2017-05-27T06:22:35.571Z,22.73
2017-05-27T06:23:01.081Z,22.72
2017-05-27T06:23:26.557Z,22.75
2017-05-27T06:23:52.004Z,22.72
2017-05-27T06:24:17.480Z,22.84
2017-05-27T06:24:42.964Z,22.83
2017-05-27T06:25:08.459Z,22.83
2017-05-27T06:25:33.918Z,22.88
2017-05-27T06:25:59.417Z,22.88
2017-05-27T06:26:24.909Z,22.88
2017-05-27T06:26:50.365Z,22.87
2017-05-27T06:27:15.835Z,22.94
2017-05-27T06:27:41.325Z,22.94
2017-05-27T06:28:06.810Z,23.02
2017-05-27T06:28:32.295Z,22.93
2017-05-27T06:28:57.753Z,22.91
2017-05-27T06:29:23.228Z,22.99
2017-05-27T06:29:48.713Z,22.98
2017-05-27T06:30:14.224Z,22.99
2017-05-27T06:30:39.667Z,23.02
2017-05-27T06:31:05.137Z,22.99
2017-05-27T06:31:30.614Z,22.96
2017-05-27T06:31:56.088Z,23.02
2017-05-27T06:32:21.557Z,22.99
2017-05-27T06:32:47.027Z,22.93
2017-05-27T06:33:12.550Z,22.96
2017-05-27T06:33:37.998Z,22.99
2017-05-27T06:34:03.472Z,23
2017-05-27T06:34:28.947Z,23.05
2017-05-27T06:34:54.407Z,23.18
2017-05-27T06:35:19.882Z,23.17
2017-05-27T06:35:45.382Z,23.21
2017-05-27T06:36:10.841Z,23.34
2017-05-27T06:36:36.332Z,23.28
2017-05-27T06:37:01.841Z,23.34
2017-05-27T06:37:27.337Z,23.36
2017-05-27T06:37:52.824Z,23.41
2017-05-27T06:38:18.282Z,23.46
2017-05-27T06:38:43.751Z,23.48
2017-05-27T06:39:09.186Z,23.5
2017-05-27T06:39:34.668Z,23.58
2017-05-27T06:40:00.147Z,23.61
2017-05-27T06:40:25.623Z,23.54
2017-05-27T06:40:51.105Z,23.62
2017-05-27T06:41:16.567Z,23.61
2017-05-27T06:41:42.033Z,23.66
2017-05-27T06:42:07.500Z,23.63
2017-05-27T06:42:33.011Z,23.63
2017-05-27T06:42:58.564Z,23.63
2017-05-27T06:43:24.042Z,23.61
2017-05-27T06:43:49.519Z,23.62
2017-05-27T06:44:15.001Z,23.68
2017-05-27T06:44:40.543Z,23.62
2017-05-27T06:45:06.015Z,23.62
2017-05-27T06:45:31.578Z,23.62
2017-05-27T06:45:57.041Z,23.65
2017-05-27T06:46:22.510Z,23.65
2017-05-27T06:46:48.007Z,23.61
2017-05-27T06:47:13.485Z,23.58
2017-05-27T06:47:38.954Z,23.58
2017-05-27T06:48:04.421Z,23.58
2017-05-27T06:48:29.897Z,23.58
2017-05-27T06:48:55.401Z,23.56
2017-05-27T06:49:20.855Z,23.61
2017-05-27T06:49:46.360Z,23.68
2017-05-27T06:50:11.853Z,23.63
2017-05-27T06:50:37.318Z,23.63
2017-05-27T06:51:02.806Z,23.66
2017-05-27T06:51:28.280Z,23.69
2017-05-27T06:51:53.753Z,23.76
2017-05-27T06:52:19.251Z,23.77
2017-05-27T06:52:44.716Z,23.69
2017-05-27T06:53:10.193Z,23.8
2017-05-27T06:53:35.662Z,23.77
2017-05-27T06:54:01.160Z,23.8
2017-05-27T06:54:26.618Z,23.74
2017-05-27T06:54:52.093Z,23.69
2017-05-27T06:55:17.620Z,23.68
2017-05-27T06:55:43.080Z,23.78
2017-05-27T06:56:08.543Z,23.76
2017-05-27T06:56:34.016Z,23.78
2017-05-27T06:56:59.497Z,23.71
2017-05-27T06:57:25.030Z,23.81
2017-05-27T06:57:50.502Z,23.84
2017-05-27T06:58:15.965Z,23.84
2017-05-27T06:58:41.467Z,23.76
2017-05-27T06:59:06.954Z,23.83
2017-05-27T06:59:32.428Z,23.8
2017-05-27T06:59:57.905Z,23.87
2017-05-27T07:00:23.378Z,23.81
2017-05-27T07:00:48.872Z,23.87
2017-05-27T07:01:14.341Z,23.84
2017-05-27T07:01:39.842Z,23.92
2017-05-27T07:02:05.322Z,23.88
2017-05-27T07:02:30.785Z,23.93
2017-05-27T07:02:56.276Z,23.93
2017-05-27T07:03:21.722Z,23.99
2017-05-27T07:03:47.199Z,23.98
2017-05-27T07:04:12.687Z,23.99
2017-05-27T07:04:38.164Z,23.98
2017-05-27T07:05:03.651Z,24.02
2017-05-27T07:05:29.170Z,23.95
2017-05-27T07:05:54.625Z,24.03
2017-05-27T07:06:20.092Z,23.96
2017-05-27T07:06:45.571Z,23.98
2017-05-27T07:07:11.048Z,23.96
2017-05-27T07:07:36.540Z,24.01
2017-05-27T07:08:02.000Z,24.1
2017-05-27T07:08:27.488Z,24.05
2017-05-27T07:08:52.959Z,24.02
2017-05-27T07:09:18.472Z,24.05
2017-05-27T07:09:43.940Z,23.99
2017-05-27T07:10:09.416Z,24.05
2017-05-27T07:10:34.873Z,23.99
2017-05-27T07:11:00.325Z,24.08
2017-05-27T07:11:25.809Z,24.05
2017-05-27T07:11:51.264Z,24.08
2017-05-27T07:12:16.735Z,24.17
2017-05-27T07:12:42.198Z,24.13
2017-05-27T07:13:07.674Z,24.16
2017-05-27T07:13:33.153Z,24.17
2017-05-27T07:13:58.620Z,24.18
2017-05-27T07:14:24.109Z,24.21
2017-05-27T07:14:49.566Z,24.26
2017-05-27T07:15:15.041Z,24.28
2017-05-27T07:15:40.566Z,24.23
2017-05-27T07:16:06.038Z,24.38
2017-05-27T07:16:31.503Z,24.32
2017-05-27T07:16:57.006Z,24.33
2017-05-27T07:17:22.532Z,24.47
2017-05-27T07:17:47.969Z,24.42
2017-05-27T07:18:13.453Z,24.53
2017-05-27T07:18:38.893Z,24.48
2017-05-27T07:19:04.367Z,24.54
2017-05-27T07:19:29.833Z,24.54
2017-05-27T07:19:55.286Z,24.53
2017-05-27T07:20:20.788Z,24.61
2017-05-27T07:20:46.264Z,24.58
2017-05-27T07:21:11.718Z,24.69
2017-05-27T07:21:37.176Z,24.65
2017-05-27T07:22:02.707Z,24.69
2017-05-27T07:22:28.194Z,24.8
2017-05-27T07:22:53.690Z,24.8
2017-05-27T07:23:19.163Z,24.81
2017-05-27T07:23:44.651Z,24.84
2017-05-27T07:24:10.130Z,24.76
2017-05-27T07:24:35.601Z,24.81
2017-05-27T07:25:01.073Z,24.78
2017-05-27T07:25:26.531Z,24.8
2017-05-27T07:25:52.027Z,24.78
2017-05-27T07:26:17.510Z,24.78
2017-05-27T07:26:42.963Z,24.86
2017-05-27T07:27:08.453Z,24.8
2017-05-27T07:27:33.972Z,24.86
2017-05-27T07:27:59.473Z,24.86
2017-05-27T07:28:24.946Z,24.86
2017-05-27T07:28:50.395Z,24.91
2017-05-27T07:29:15.877Z,24.89
2017-05-27T07:29:41.379Z,24.77
2017-05-27T07:30:06.888Z,24.91
2017-05-27T07:30:32.329Z,24.91
2017-05-27T07:30:57.804Z,24.77
2017-05-27T07:31:23.275Z,24.88
2017-05-27T07:31:48.766Z,24.91
2017-05-27T07:32:14.254Z,24.92
2017-05-27T07:32:39.721Z,24.86
2017-05-27T07:33:05.194Z,24.92
2017-05-27T07:33:30.649Z,24.91
2017-05-27T07:33:56.138Z,24.93
2017-05-27T07:34:21.601Z,24.93
2017-05-27T07:34:47.097Z,24.92
2017-05-27T07:35:12.566Z,24.98
2017-05-27T07:35:38.026Z,25.01
2017-05-27T07:36:03.514Z,24.99
2017-05-27T07:36:28.995Z,24.96
2017-05-27T07:36:54.467Z,25.04
2017-05-27T07:37:19.945Z,25.03
2017-05-27T07:37:45.399Z,25.11
2017-05-27T07:38:10.888Z,25.14
2017-05-27T07:38:36.376Z,25.14
2017-05-27T07:39:01.848Z,25.1
2017-05-27T07:39:27.332Z,25.23
2017-05-27T07:39:52.835Z,25.25
2017-05-27T07:40:18.303Z,25.29
2017-05-27T07:40:43.807Z,25.26
2017-05-27T07:41:09.304Z,25.29
2017-05-27T07:41:34.810Z,25.29
2017-05-27T07:42:00.317Z,25.33
2017-05-27T07:42:25.804Z,25.35
2017-05-27T07:42:51.285Z,25.32
2017-05-27T07:43:16.758Z,25.36
2017-05-27T07:43:42.256Z,25.29
2017-05-27T07:44:07.765Z,25.44
2017-05-27T07:44:33.273Z,25.47
2017-05-27T07:44:58.735Z,25.46
2017-05-27T07:45:24.191Z,25.48
2017-05-27T07:45:49.671Z,25.46
2017-05-27T07:46:15.151Z,25.46
2017-05-27T07:46:40.643Z,25.53
2017-05-27T07:47:06.145Z,25.48
2017-05-27T07:47:31.629Z,25.54
2017-05-27T07:47:57.094Z,25.54
2017-05-27T07:48:22.591Z,25.5
2017-05-27T07:48:48.099Z,25.48
2017-05-27T07:49:13.564Z,25.55
2017-05-27T07:49:39.037Z,25.58
2017-05-27T07:50:04.514Z,25.58
2017-05-27T07:50:29.954Z,25.62
2017-05-27T07:50:55.446Z,25.68
2017-05-27T07:51:20.917Z,25.58
2017-05-27T07:51:46.382Z,25.62
2017-05-27T07:52:11.881Z,25.58
2017-05-27T07:52:37.354Z,25.7
2017-05-27T07:53:02.846Z,25.69
2017-05-27T07:53:28.354Z,25.7
2017-05-27T07:53:53.851Z,25.66
2017-05-27T07:54:19.370Z,25.73
2017-05-27T07:54:44.832Z,25.78
2017-05-27T07:55:10.307Z,25.83
2017-05-27T07:55:35.764Z,25.83
2017-05-27T07:56:01.308Z,25.85
2017-05-27T07:56:26.792Z,25.87
2017-05-27T07:56:52.275Z,25.9
2017-05-27T07:57:17.754Z,25.95
2017-05-27T07:57:43.207Z,25.93
2017-05-27T07:58:08.742Z,25.96
2017-05-27T07:58:34.229Z,25.95
2017-05-27T07:58:59.710Z,25.96
2017-05-27T07:59:25.179Z,25.93
2017-05-27T07:59:50.657Z,25.99
2017-05-27T08:00:16.155Z,25.91
2017-05-27T08:00:41.625Z,26.06
2017-05-27T08:01:07.087Z,26
2017-05-27T08:01:32.570Z,26.07
2017-05-27T08:01:58.055Z,26.13
2017-05-27T08:02:23.527Z,26.15
2017-05-27T08:02:49.035Z,26.16
2017-05-27T08:03:14.527Z,26.13
2017-05-27T08:03:40.026Z,26.26
2017-05-27T08:04:05.482Z,26.21
2017-05-27T08:04:30.991Z,26.28
2017-05-27T08:04:56.470Z,26.21
2017-05-27T08:05:21.958Z,26.18
2017-05-27T08:05:47.421Z,26.19
2017-05-27T08:06:12.935Z,26.21
2017-05-27T08:06:38.382Z,26.21
2017-05-27T08:07:03.846Z,26.22
2017-05-27T08:07:29.319Z,26.36
2017-05-27T08:07:54.776Z,26.31
2017-05-27T08:08:20.304Z,26.41
2017-05-27T08:08:45.756Z,26.44
2017-05-27T08:09:11.209Z,26.38
2017-05-27T08:09:36.686Z,26.41
2017-05-27T08:10:02.169Z,26.47
2017-05-27T08:10:27.720Z,26.47
2017-05-27T08:10:53.199Z,26.58
2017-05-27T08:11:18.669Z,26.62
2017-05-27T08:11:44.148Z,26.56
2017-05-27T08:12:09.635Z,26.6
2017-05-27T08:12:35.115Z,26.66
2017-05-27T08:13:00.606Z,26.65
2017-05-27T08:13:26.103Z,26.73
2017-05-27T08:13:51.585Z,26.75
2017-05-27T08:14:17.056Z,26.73
2017-05-27T08:14:42.528Z,26.65
2017-05-27T08:15:07.997Z,26.78
2017-05-27T08:15:33.447Z,26.77
2017-05-27T08:15:58.909Z,26.75
2017-05-27T08:16:24.390Z,26.77
2017-05-27T08:16:49.877Z,26.77
2017-05-27T08:17:15.376Z,26.8
2017-05-27T08:17:40.831Z,26.9
2017-05-27T08:18:06.317Z,26.88
2017-05-27T08:18:31.789Z,26.83
2017-05-27T08:18:57.257Z,26.89
2017-05-27T08:19:22.710Z,26.88
2017-05-27T08:19:48.189Z,26.92
2017-05-27T08:20:13.661Z,26.96
2017-05-27T08:20:39.113Z,26.92
2017-05-27T08:21:04.583Z,27
2017-05-27T08:21:30.055Z,27.02
2017-05-27T08:21:55.533Z,27.05
2017-05-27T08:22:21.077Z,26.99
2017-05-27T08:22:46.567Z,27.11
2017-05-27T08:23:12.060Z,27.05
2017-05-27T08:23:37.540Z,27.03
2017-05-27T08:24:03.043Z,27
2017-05-27T08:24:28.538Z,26.95
2017-05-27T08:24:54.010Z,26.99
2017-05-27T08:25:19.486Z,26.97
2017-05-27T08:25:44.982Z,26.96
2017-05-27T08:26:10.478Z,27.03
2017-05-27T08:26:35.941Z,27.07
2017-05-27T08:27:01.389Z,27.02
2017-05-27T08:27:26.868Z,27.05
2017-05-27T08:27:52.319Z,27.11
2017-05-27T08:28:17.791Z,27.11
2017-05-27T08:28:43.284Z,27.1
2017-05-27T08:29:08.777Z,27.05
2017-05-27T08:29:34.268Z,27
2017-05-27T08:29:59.762Z,27
2017-05-27T08:30:25.248Z,27
2017-05-27T08:30:50.720Z,26.97
2017-05-27T08:31:16.193Z,26.92
2017-05-27T08:31:41.684Z,26.96
2017-05-27T08:32:07.171Z,26.97
2017-05-27T08:32:32.615Z,26.99
2017-05-27T08:32:58.064Z,26.96
2017-05-27T08:33:23.550Z,27
2017-05-27T08:33:49.023Z,26.96
2017-05-27T08:34:14.521Z,27
2017-05-27T08:34:39.995Z,26.99
2017-05-27T08:35:05.476Z,26.99
2017-05-27T08:35:30.990Z,26.92
2017-05-27T08:35:56.452Z,27.03
2017-05-27T08:36:21.957Z,27.08
2017-05-27T08:36:47.431Z,27.07
2017-05-27T08:37:12.949Z,27.03
2017-05-27T08:37:38.415Z,27.07
2017-05-27T08:38:03.903Z,27.11
2017-05-27T08:38:29.388Z,27.15
2017-05-27T08:38:54.843Z,27.11
2017-05-27T08:39:20.321Z,27.21
2017-05-27T08:39:45.791Z,27.2
2017-05-27T08:40:11.304Z,27.21
2017-05-27T08:40:36.775Z,27.21
2017-05-27T08:41:02.264Z,27.32
2017-05-27T08:41:27.780Z,27.3
2017-05-27T08:41:53.249Z,27.35
2017-05-27T08:42:18.722Z,27.37
2017-05-27T08:42:44.222Z,27.44
2017-05-27T08:43:09.683Z,27.4
2017-05-27T08:43:35.164Z,27.32
2017-05-27T08:44:00.638Z,27.4
2017-05-27T08:44:26.106Z,27.39
2017-05-27T08:44:51.601Z,27.4
2017-05-27T08:45:17.057Z,27.35
2017-05-27T08:45:42.530Z,27.32
2017-05-27T08:46:08.017Z,27.44
2017-05-27T08:46:33.493Z,27.4
2017-05-27T08:46:58.960Z,27.39
2017-05-27T08:47:24.440Z,27.44
2017-05-27T08:47:49.908Z,27.47
2017-05-27T08:48:15.387Z,27.48
2017-05-27T08:48:40.853Z,27.52
2017-05-27T08:49:06.340Z,27.54
2017-05-27T08:49:31.787Z,27.52
2017-05-27T08:49:57.267Z,27.52
2017-05-27T08:50:22.761Z,27.52
2017-05-27T08:50:48.269Z,27.47
2017-05-27T08:51:13.748Z,27.48
2017-05-27T08:51:39.231Z,27.49
2017-05-27T08:52:04.685Z,27.48
2017-05-27T08:52:30.159Z,27.51
2017-05-27T08:52:55.662Z,27.59
2017-05-27T08:53:21.078Z,27.63
2017-05-27T08:53:46.539Z,27.59
2017-05-27T08:54:12.044Z,27.64
2017-05-27T08:54:37.502Z,27.64
2017-05-27T08:55:02.987Z,27.7
2017-05-27T08:55:28.460Z,27.71
2017-05-27T08:55:53.923Z,27.77
2017-05-27T08:56:19.411Z,27.74
2017-05-27T08:56:44.908Z,27.74
2017-05-27T08:57:10.403Z,27.77
2017-05-27T08:57:35.872Z,27.68
2017-05-27T08:58:01.384Z,27.67
2017-05-27T08:58:26.862Z,27.78
2017-05-27T08:58:52.359Z,27.74
2017-05-27T08:59:17.853Z,27.77
2017-05-27T08:59:43.322Z,27.77
2017-05-27T09:00:08.798Z,27.82
2017-05-27T09:00:34.286Z,27.87
2017-05-27T09:00:59.794Z,27.86
2017-05-27T09:01:25.277Z,27.93
2017-05-27T09:01:50.746Z,27.87
2017-05-27T09:02:16.193Z,27.89
2017-05-27T09:02:41.686Z,27.89
2017-05-27T09:03:07.181Z,27.8
2017-05-27T09:03:32.664Z,27.86
2017-05-27T09:03:58.127Z,27.85
2017-05-27T09:04:23.609Z,27.89
2017-05-27T09:04:49.085Z,27.86
2017-05-27T09:05:14.566Z,27.82
2017-05-27T09:05:40.063Z,27.87
2017-05-27T09:06:05.558Z,27.74
2017-05-27T09:06:31.075Z,27.78
2017-05-27T09:06:56.554Z,27.77
2017-05-27T09:07:22.047Z,27.78
2017-05-27T09:07:47.537Z,27.78
2017-05-27T09:08:12.995Z,27.8
2017-05-27T09:08:38.461Z,27.74
2017-05-27T09:09:03.950Z,27.74
2017-05-27T09:09:29.424Z,27.83
2017-05-27T09:09:54.895Z,27.67
2017-05-27T09:10:20.370Z,27.78
2017-05-27T09:10:45.883Z,27.85
2017-05-27T09:11:11.381Z,27.83
2017-05-27T09:11:36.855Z,27.77
2017-05-27T09:12:02.315Z,27.8
2017-05-27T09:12:27.775Z,27.8
2017-05-27T09:12:53.265Z,27.82
2017-05-27T09:13:18.767Z,27.8
2017-05-27T09:13:44.243Z,27.82
2017-05-27T09:14:09.707Z,27.71
2017-05-27T09:14:35.177Z,27.71
2017-05-27T09:15:00.657Z,27.77
2017-05-27T09:15:26.106Z,27.82
2017-05-27T09:15:51.572Z,27.82
2017-05-27T09:16:17.023Z,27.83
2017-05-27T09:16:42.510Z,27.87
2017-05-27T09:17:08.013Z,27.89
2017-05-27T09:17:33.417Z,27.86
2017-05-27T09:17:58.931Z,27.83
2017-05-27T09:18:24.390Z,27.9
2017-05-27T09:18:49.880Z,27.75
2017-05-27T09:19:15.380Z,27.78
2017-05-27T09:19:40.866Z,27.78
2017-05-27T09:20:06.327Z,27.77
2017-05-27T09:20:31.798Z,27.87
2017-05-27T09:20:57.296Z,27.9
2017-05-27T09:21:22.755Z,27.9
2017-05-27T09:21:48.219Z,27.92
2017-05-27T09:22:13.705Z,27.95
2017-05-27T09:22:39.177Z,27.95
2017-05-27T09:23:04.707Z,27.96
2017-05-27T09:23:30.185Z,28.05
2017-05-27T09:23:55.680Z,28.1
2017-05-27T09:24:21.149Z,28.12
2017-05-27T09:24:46.633Z,28.04
2017-05-27T09:25:12.132Z,28.14
2017-05-27T09:25:37.600Z,28.19
2017-05-27T09:26:03.103Z,28.14
2017-05-27T09:26:28.589Z,28.17
2017-05-27T09:26:54.073Z,28.12
2017-05-27T09:27:19.544Z,28.17
2017-05-27T09:27:45.009Z,28.17
2017-05-27T09:28:10.492Z,28.14
2017-05-27T09:28:35.979Z,28.08
2017-05-27T09:29:01.437Z,28.08
2017-05-27T09:29:26.939Z,28.01
2017-05-27T09:29:52.426Z,27.96
2017-05-27T09:30:17.892Z,27.9
2017-05-27T09:30:43.361Z,28.04
2017-05-27T09:31:08.865Z,27.96
2017-05-27T09:31:34.343Z,27.96
2017-05-27T09:31:59.839Z,27.96
2017-05-27T09:32:25.316Z,27.98
2017-05-27T09:32:50.793Z,28.04
2017-05-27T09:33:16.296Z,28.01
2017-05-27T09:33:41.767Z,28.04
2017-05-27T09:34:07.232Z,28.01
2017-05-27T09:34:32.722Z,28.05
2017-05-27T09:34:58.206Z,28.1
2017-05-27T09:35:23.764Z,28.11
2017-05-27T09:35:49.251Z,28.07
2017-05-27T09:36:14.747Z,28.25
2017-05-27T09:36:40.232Z,28.23
2017-05-27T09:37:05.723Z,28.26
2017-05-27T09:37:31.246Z,28.26
2017-05-27T09:37:56.720Z,28.25
2017-05-27T09:38:22.218Z,28.17
2017-05-27T09:38:47.713Z,28.26
2017-05-27T09:39:13.190Z,28.26
2017-05-27T09:39:38.675Z,28.29
2017-05-27T09:40:04.165Z,28.29
2017-05-27T09:40:29.603Z,28.37
2017-05-27T09:40:55.083Z,28.33
2017-05-27T09:41:20.595Z,28.32
2017-05-27T09:41:46.084Z,28.33
2017-05-27T09:42:11.570Z,28.37
2017-05-27T09:42:37.065Z,28.37
2017-05-27T09:43:02.544Z,28.3
2017-05-27T09:43:28.000Z,28.3
2017-05-27T09:43:53.490Z,28.32
2017-05-27T09:44:18.973Z,28.33
2017-05-27T09:44:44.459Z,28.35
2017-05-27T09:45:09.933Z,28.32
2017-05-27T09:45:35.431Z,28.32
2017-05-27T09:46:00.922Z,28.38
2017-05-27T09:46:26.420Z,28.37
2017-05-27T09:46:51.878Z,28.29
2017-05-27T09:47:17.368Z,28.32
2017-05-27T09:47:42.842Z,28.37
2017-05-27T09:48:08.336Z,28.32
2017-05-27T09:48:33.813Z,28.3
2017-05-27T09:48:59.299Z,28.33
2017-05-27T09:49:24.785Z,28.33
2017-05-27T09:49:50.260Z,28.37
2017-05-27T09:50:15.741Z,28.33
2017-05-27T09:50:41.267Z,28.33
2017-05-27T09:51:06.710Z,28.35
2017-05-27T09:51:32.180Z,28.33
2017-05-27T09:51:57.666Z,28.37
2017-05-27T09:52:23.161Z,28.38
2017-05-27T09:52:48.646Z,28.47
2017-05-27T09:53:14.092Z,28.49
2017-05-27T09:53:39.588Z,28.47
2017-05-27T09:54:05.104Z,28.47
2017-05-27T09:54:30.598Z,28.47
2017-05-27T09:54:56.085Z,28.54
2017-05-27T09:55:21.579Z,28.54
2017-05-27T09:55:47.066Z,28.57
2017-05-27T09:56:12.551Z,28.59
2017-05-27T09:56:38.053Z,28.66
2017-05-27T09:57:03.537Z,28.57
2017-05-27T09:57:29.004Z,28.7
2017-05-27T09:57:54.492Z,28.63
2017-05-27T09:58:19.954Z,28.67
2017-05-27T09:58:45.420Z,28.67
2017-05-27T09:59:10.893Z,28.66
2017-05-27T09:59:36.357Z,28.66
2017-05-27T10:00:01.841Z,28.66
2017-05-27T10:00:27.327Z,28.79
2017-05-27T10:00:52.804Z,28.78
2017-05-27T10:01:18.282Z,28.74
2017-05-27T10:01:43.771Z,28.81
2017-05-27T10:02:09.247Z,28.76
2017-05-27T10:02:34.722Z,28.81
2017-05-27T10:03:00.160Z,28.81
2017-05-27T10:03:25.662Z,28.78
2017-05-27T10:03:51.144Z,28.81
2017-05-27T10:04:16.639Z,28.85
2017-05-27T10:04:42.137Z,28.81
2017-05-27T10:05:07.594Z,28.81
2017-05-27T10:05:33.070Z,28.82
2017-05-27T10:05:58.538Z,28.79
2017-05-27T10:06:24.018Z,28.79
2017-05-27T10:06:49.504Z,28.79
2017-05-27T10:07:15.002Z,28.85
2017-05-27T10:07:40.489Z,28.76
2017-05-27T10:08:05.978Z,28.75
2017-05-27T10:08:31.457Z,28.76
2017-05-27T10:08:56.925Z,28.82
2017-05-27T10:09:22.380Z,28.79
2017-05-27T10:09:47.880Z,28.78
2017-05-27T10:10:13.385Z,28.81
2017-05-27T10:10:38.857Z,28.82
2017-05-27T10:11:04.349Z,28.82
2017-05-27T10:11:29.832Z,28.79
2017-05-27T10:11:55.302Z,28.79
2017-05-27T10:12:20.766Z,28.81
2017-05-27T10:12:46.258Z,28.82
2017-05-27T10:13:11.719Z,28.78
2017-05-27T10:13:37.193Z,28.81
2017-05-27T10:14:02.682Z,28.74
2017-05-27T10:14:28.168Z,28.75
2017-05-27T10:14:53.670Z,28.75
2017-05-27T10:15:19.157Z,28.72
2017-05-27T10:15:44.657Z,28.69